Time;durP1;ratioP1;P1;durP2;ratioP2;P2;SDS_P1;SDS_P2;PMS_P1;PMS_P2;Temp;Humidity;BMP_temperature;BMP_pressure;BME280_temperature;BME280_humidity;BME280_pressure;Samples;Min_cycle;Max_cycle;Signal;HPM_P1;HPM_P2
2021/04/29 00:01:14;;;;;;;99.72;54.38;;;;;;;5.72;71.62;94145.94;1846994;77;21411;-56
2021/04/29 00:03:42;;;;;;;102.80;53.48;;;;;;;5.76;71.47;94145.27;1847063;77;21631;-56
2021/04/29 00:06:10;;;;;;;87.75;48.20;;;;;;;5.78;71.54;94144.23;1847022;77;21055;-55
2021/04/29 00:08:40;;;;;;;86.53;49.30;;;;;;;5.83;71.32;94143.73;1846930;77;21087;-55
2021/04/29 00:11:08;;;;;;;96.80;50.98;;;;;;;5.86;70.85;94141.50;1847031;77;21083;-56
2021/04/29 00:13:38;;;;;;;91.05;46.90;;;;;;;5.74;71.03;94144.91;1847017;77;21146;-55
2021/04/29 00:16:06;;;;;;;83.07;44.48;;;;;;;5.64;70.90;94144.61;1846906;77;21623;-55
2021/04/29 00:18:34;;;;;;;84.30;40.60;;;;;;;5.57;70.85;94137.98;1847014;77;21131;-55
2021/04/29 00:21:02;;;;;;;86.78;42.80;;;;;;;5.56;70.86;94142.66;1847014;77;21178;-56
2021/04/29 00:23:30;;;;;;;75.30;41.15;;;;;;;5.52;70.85;94139.27;1847047;77;21056;-55
2021/04/29 00:25:58;;;;;;;73.97;41.63;;;;;;;5.46;71.14;94147.78;1847017;77;21322;-56
2021/04/29 00:28:26;;;;;;;74.15;42.67;;;;;;;5.45;71.00;94144.13;1846952;77;21115;-55
2021/04/29 00:30:54;;;;;;;79.87;43.13;;;;;;;5.45;70.96;94138.68;1846950;77;21075;-55
2021/04/29 00:33:22;;;;;;;84.42;42.65;;;;;;;5.46;71.07;94144.30;1846993;77;21179;-55
2021/04/29 00:35:50;;;;;;;87.33;44.27;;;;;;;5.50;71.13;94138.16;1846972;77;21083;-56
2021/04/29 00:38:18;;;;;;;96.57;48.00;;;;;;;5.56;70.87;94143.24;1847104;77;21254;-55
2021/04/29 00:40:46;;;;;;;95.05;46.77;;;;;;;5.48;70.83;94144.05;1846908;77;21158;-56
2021/04/29 00:43:14;;;;;;;73.47;37.33;;;;;;;5.44;71.23;94144.72;1846928;77;21151;-55
2021/04/29 00:45:42;;;;;;;66.20;37.08;;;;;;;5.42;71.33;94141.66;1847081;77;21146;-56
2021/04/29 00:48:10;;;;;;;77.65;41.88;;;;;;;5.38;71.50;94138.88;1846990;77;21040;-56
2021/04/29 00:50:40;;;;;;;88.15;46.15;;;;;;;5.36;71.54;94132.47;1846926;77;21083;-55
2021/04/29 00:53:08;;;;;;;89.15;44.20;;;;;;;5.39;71.74;94135.70;1846994;77;21072;-56
2021/04/29 00:55:36;;;;;;;83.37;40.80;;;;;;;5.51;71.62;94140.46;1847014;77;21111;-56
2021/04/29 00:58:04;;;;;;;87.70;40.15;;;;;;;5.61;71.04;94140.77;1846609;77;21154;-56
2021/04/29 01:00:34;;;;;;;81.67;38.65;;;;;;;5.58;70.74;94134.81;1846992;77;21143;-56
2021/04/29 01:03:09;;;;;;;78.50;39.60;;;;;;;5.47;70.83;94135.70;1846660;77;22126;-55
2021/04/29 01:05:44;;;;;;;82.50;37.65;;;;;;;5.48;70.96;94128.27;1846929;77;21075;-55
2021/04/29 01:08:34;;;;;;;88.27;41.23;;;;;;;5.49;70.93;94131.16;1890051;75;23220;-56
2021/04/29 01:11:06;;;;;;;93.57;43.20;;;;;;;5.36;71.17;94137.14;1858529;77;21159;-56
2021/04/29 01:13:33;;;;;;;87.10;43.48;;;;;;;5.32;71.47;94133.75;1860954;77;21129;-57
2021/04/29 01:16:01;;;;;;;91.00;47.50;;;;;;;5.33;71.83;94127.09;1860856;77;21112;-56
2021/04/29 01:18:29;;;;;;;93.52;45.65;;;;;;;5.39;71.73;94133.58;1860858;77;20926;-55
2021/04/29 01:21:04;;;;;;;100.35;50.28;;;;;;;5.33;71.52;94135.28;1828265;77;20935;-56
2021/04/29 01:23:52;;;;;;;81.95;42.30;;;;;;;5.19;71.92;94131.53;1860983;77;21148;-55
2021/04/29 01:26:40;;;;;;;87.47;44.27;;;;;;;5.22;72.17;94129.92;1860946;77;21179;-55
2021/04/29 01:29:09;;;;;;;76.05;41.98;;;;;;;5.19;72.26;94126.08;1860885;77;20934;-56
2021/04/29 01:31:39;;;;;;;70.87;38.53;;;;;;;5.16;72.56;94126.94;1861027;77;21065;-55
2021/04/29 01:34:09;;;;;;;94.00;49.27;;;;;;;5.17;72.86;94120.30;1861005;77;21080;-56
2021/04/29 01:36:37;;;;;;;117.42;61.40;;;;;;;5.20;72.67;94126.86;1860884;77;21061;-56
2021/04/29 01:39:08;;;;;;;125.02;64.30;;;;;;;5.15;72.80;94124.05;1860921;77;22090;-56
2021/04/29 01:41:38;;;;;;;113.22;57.35;;;;;;;5.14;73.01;94123.87;1860931;77;21137;-55
2021/04/29 01:44:08;;;;;;;98.62;48.38;;;;;;;5.19;73.12;94122.61;1828805;77;21088;-55
2021/04/29 01:46:36;;;;;;;73.65;40.50;;;;;;;5.24;73.16;94118.77;1827118;78;21151;-56
2021/04/29 01:49:06;;;;;;;79.22;45.85;;;;;;;5.31;73.27;94119.95;1827184;78;21132;-56
2021/04/29 01:51:35;;;;;;;85.67;42.67;;;;;;;5.41;73.31;94110.73;1827259;78;21189;-56
2021/04/29 01:54:04;;;;;;;89.55;48.05;;;;;;;5.55;72.79;94111.13;1827077;78;21136;-56
2021/04/29 01:56:31;;;;;;;104.90;53.35;;;;;;;5.55;72.58;94113.07;1827216;78;21171;-55
2021/04/29 01:58:59;;;;;;;94.95;50.67;;;;;;;5.53;72.44;94114.09;1827165;78;21100;-56
2021/04/29 02:01:28;;;;;;;105.95;55.70;;;;;;;5.45;72.40;94114.12;1795235;78;21076;-55
2021/04/29 02:03:56;;;;;;;138.05;61.75;;;;;;;5.38;72.44;94106.89;1827159;78;21109;-56
2021/04/29 02:06:24;;;;;;;128.00;63.23;;;;;;;5.35;72.58;94108.34;1827056;78;21156;-55
2021/04/29 02:08:52;;;;;;;127.30;60.17;;;;;;;5.39;72.65;94107.67;1830358;78;21076;-55
2021/04/29 02:11:20;;;;;;;101.10;54.08;;;;;;;5.46;72.60;94115.05;1830301;78;21069;-56
2021/04/29 02:13:50;;;;;;;103.70;52.85;;;;;;;5.51;72.38;94100.91;1830370;78;21080;-55
2021/04/29 02:16:21;;;;;;;94.62;45.30;;;;;;;5.51;72.27;94093.31;1830340;78;21189;-55
2021/04/29 02:18:51;;;;;;;92.05;46.23;;;;;;;5.51;72.29;94089.22;1800628;78;21509;-57
2021/04/29 02:21:20;;;;;;;98.97;52.13;;;;;;;5.50;72.23;94087.69;1829846;78;21536;-56
2021/04/29 02:23:49;;;;;;;107.17;54.85;;;;;;;5.49;72.40;94092.39;1829752;78;21494;-57
2021/04/29 02:26:19;;;;;;;110.37;58.55;;;;;;;5.59;72.37;94095.41;1829712;78;21057;-56
2021/04/29 02:28:47;;;;;;;105.22;56.10;;;;;;;5.60;72.46;94088.02;1829793;78;21193;-56
2021/04/29 02:31:15;;;;;;;96.45;51.42;;;;;;;5.62;72.34;94085.00;1829596;78;21159;-55
2021/04/29 02:33:43;;;;;;;113.52;55.98;;;;;;;5.60;72.37;94092.86;1829792;78;21512;-56
2021/04/29 02:36:11;;;;;;;115.82;56.80;;;;;;;5.55;72.27;94084.42;1829713;78;21081;-56
2021/04/29 02:38:39;;;;;;;104.78;54.48;;;;;;;5.55;72.45;94089.88;1829746;78;21061;-55
2021/04/29 02:41:07;;;;;;;98.10;51.85;;;;;;;5.57;72.38;94088.27;1829760;78;21204;-55
2021/04/29 02:43:35;;;;;;;81.50;44.10;;;;;;;5.60;72.33;94089.38;1829731;77;21536;-55
2021/04/29 02:46:03;;;;;;;80.90;44.00;;;;;;;5.63;72.20;94091.98;1829666;78;21549;-56
2021/04/29 02:48:33;;;;;;;86.42;44.10;;;;;;;5.61;72.16;94093.02;1829691;78;21131;-56
2021/04/29 02:51:02;;;;;;;90.75;46.65;;;;;;;5.59;72.48;94096.78;1829738;78;21048;-55
2021/04/29 02:53:31;;;;;;;79.25;39.23;;;;;;;5.68;72.49;94096.94;1829547;78;22202;-56
2021/04/29 02:55:59;;;;;;;64.60;36.90;;;;;;;5.74;72.15;94101.25;1829644;78;21057;-58
2021/04/29 02:58:27;;;;;;;67.12;37.15;;;;;;;5.75;72.06;94099.47;1829651;78;21076;-56
2021/04/29 03:00:58;;;;;;;68.33;37.25;;;;;;;5.80;72.21;94098.20;1829672;78;21104;-56
2021/04/29 03:03:26;;;;;;;69.05;38.88;;;;;;;5.86;71.80;94100.56;1800735;78;21152;-56
2021/04/29 03:05:54;;;;;;;84.28;42.35;;;;;;;5.85;71.81;94094.94;1829687;78;21378;-55
2021/04/29 03:08:22;;;;;;;94.92;45.58;;;;;;;5.93;71.81;94092.94;1829593;78;21564;-55
2021/04/29 03:10:50;;;;;;;121.30;54.58;;;;;;;6.06;71.78;94091.60;1829689;78;21065;-55
2021/04/29 03:13:18;;;;;;;97.15;46.73;;;;;;;6.16;71.14;94093.27;1829685;78;21242;-57
2021/04/29 03:15:45;;;;;;;93.17;50.40;;;;;;;6.16;70.88;94096.00;1829711;78;21128;-57
2021/04/29 03:18:13;;;;;;;87.47;44.18;;;;;;;6.05;70.69;94100.41;1829690;78;21359;-56
2021/04/29 03:20:42;;;;;;;91.57;45.95;;;;;;;5.99;70.90;94104.85;1829770;78;21600;-56
2021/04/29 03:23:10;;;;;;;109.25;53.95;;;;;;;5.97;71.08;94106.50;1829786;78;21073;-58
2021/04/29 03:25:38;;;;;;;87.88;45.83;;;;;;;6.02;71.10;94104.59;1829641;78;21084;-58
2021/04/29 03:28:06;;;;;;;84.40;44.18;;;;;;;6.06;71.19;94101.16;1829763;78;21572;-56
2021/04/29 03:30:33;;;;;;;81.95;44.00;;;;;;;6.13;70.99;94098.24;1829626;78;21354;-56
2021/04/29 03:33:01;;;;;;;91.75;47.15;;;;;;;6.15;71.05;94113.59;1829638;78;21080;-55
2021/04/29 03:35:29;;;;;;;137.35;64.67;;;;;;;6.18;70.89;94112.09;1829670;78;21085;-56
2021/04/29 03:37:58;;;;;;;152.07;61.70;;;;;;;6.12;70.68;94115.20;1829616;78;21061;-56
2021/04/29 03:40:26;;;;;;;127.27;55.05;;;;;;;6.01;70.72;94112.00;1829779;78;21080;-55
2021/04/29 03:42:55;;;;;;;157.72;57.08;;;;;;;5.97;70.98;94112.70;1829647;77;21359;-57
2021/04/29 03:45:24;;;;;;;127.85;57.73;;;;;;;6.00;71.26;94105.62;1829716;78;21549;-56
2021/04/29 03:47:51;;;;;;;108.15;53.35;;;;;;;6.08;71.26;94117.87;1829654;78;21175;-57
2021/04/29 03:50:20;;;;;;;105.03;55.90;;;;;;;6.18;71.28;94114.08;1829701;78;21057;-56
2021/04/29 03:52:49;;;;;;;161.12;86.17;;;;;;;6.33;71.12;94116.57;1829665;78;21148;-56
2021/04/29 03:55:17;;;;;;;159.55;84.32;;;;;;;6.48;70.89;94119.05;1829680;78;21250;-57
2021/04/29 03:57:44;;;;;;;135.68;64.58;;;;;;;6.67;70.39;94118.08;1829606;78;21144;-56
2021/04/29 04:00:14;;;;;;;129.50;65.80;;;;;;;6.68;69.84;94112.78;1829671;78;21120;-56
2021/04/29 04:02:42;;;;;;;121.65;63.28;;;;;;;6.63;69.93;94117.40;1829764;78;21163;-57
2021/04/29 04:05:12;;;;;;;113.37;57.08;;;;;;;6.61;69.88;94117.08;1829632;78;21068;-56
2021/04/29 04:07:39;;;;;;;110.10;60.00;;;;;;;6.57;70.05;94109.00;1828571;78;22114;-56
2021/04/29 04:10:09;;;;;;;143.25;69.70;;;;;;;6.61;70.25;94109.66;1826393;78;21073;-56
2021/04/29 04:12:39;;;;;;;139.40;70.57;;;;;;;6.66;69.93;94111.83;1826400;78;20937;-56
2021/04/29 04:15:09;;;;;;;163.40;66.47;;;;;;;6.67;70.18;94103.05;1826420;78;21092;-56
2021/04/29 04:17:36;;;;;;;148.30;68.57;;;;;;;6.73;70.09;94111.60;1826510;78;21119;-58
2021/04/29 04:20:08;;;;;;;132.20;68.12;;;;;;;6.76;70.01;94109.97;1822321;78;21201;-56
2021/04/29 04:22:35;;;;;;;110.70;61.33;;;;;;;6.79;70.19;94110.46;1826474;78;21127;-57
2021/04/29 04:25:05;;;;;;;118.60;66.62;;;;;;;6.94;70.08;94108.81;1826459;78;21107;-57
2021/04/29 04:27:34;;;;;;;122.10;67.78;;;;;;;7.08;70.27;94107.16;1826407;78;21172;-55
2021/04/29 04:30:05;;;;;;;112.60;63.75;;;;;;;7.31;70.04;94099.94;1826520;78;21612;-57
2021/04/29 04:32:32;;;;;;;111.03;62.50;;;;;;;7.49;69.29;94108.94;1826480;78;21187;-57
2021/04/29 04:35:01;;;;;;;113.42;62.03;;;;;;;7.51;68.65;94104.53;1826354;78;21502;-57
2021/04/29 04:37:31;;;;;;;105.85;57.93;;;;;;;7.48;68.39;94108.16;1826418;78;21065;-55
2021/04/29 04:39:59;;;;;;;120.75;59.15;;;;;;;7.48;68.22;94108.78;1826430;78;21061;-57
2021/04/29 04:42:27;;;;;;;111.83;57.85;;;;;;;7.45;68.25;94103.58;1826332;77;21585;-57
2021/04/29 04:44:54;;;;;;;88.47;48.58;;;;;;;7.41;68.24;94098.84;1826396;78;21254;-56
2021/04/29 04:47:23;;;;;;;97.30;54.98;;;;;;;7.37;68.39;94103.64;1826301;78;21164;-56
2021/04/29 04:49:52;;;;;;;90.42;49.60;;;;;;;7.36;68.52;94111.69;1826381;78;21534;-56
2021/04/29 04:52:19;;;;;;;103.92;53.78;;;;;;;7.36;68.55;94112.31;1826503;78;21064;-57
2021/04/29 04:54:49;;;;;;;92.45;50.95;;;;;;;7.28;68.59;94113.14;1826425;78;21049;-57
2021/04/29 04:57:17;;;;;;;83.40;43.35;;;;;;;7.18;68.80;94114.24;1826334;78;22193;-57
2021/04/29 04:59:45;;;;;;;85.45;45.98;;;;;;;7.15;68.96;94108.29;1826368;78;21156;-56
2021/04/29 05:02:13;;;;;;;137.30;52.60;;;;;;;7.13;69.18;94108.59;1826389;78;21120;-57
2021/04/29 05:04:42;;;;;;;120.75;59.13;;;;;;;7.15;69.46;94111.02;1826381;78;21061;-57
2021/04/29 05:07:12;;;;;;;103.00;56.80;;;;;;;7.26;69.81;94107.94;1826398;78;21175;-57
2021/04/29 05:09:42;;;;;;;104.53;56.73;;;;;;;7.49;69.80;94106.95;1826250;78;21183;-56
2021/04/29 05:12:11;;;;;;;107.55;65.08;;;;;;;7.71;69.09;94115.21;1826336;78;21088;-57
2021/04/29 05:14:39;;;;;;;111.17;56.85;;;;;;;7.80;68.78;94114.69;1826343;78;21069;-55
2021/04/29 05:17:07;;;;;;;98.30;53.30;;;;;;;7.83;68.43;94123.38;1794371;78;21508;-55
2021/04/29 05:19:36;;;;;;;98.22;54.10;;;;;;;7.89;68.23;94122.95;1826399;78;21143;-56
2021/04/29 05:22:04;;;;;;;109.45;56.73;;;;;;;7.89;68.23;94124.95;1826263;78;22131;-57
2021/04/29 05:24:32;;;;;;;97.57;52.15;;;;;;;7.94;68.07;94123.77;1826300;78;21175;-57
2021/04/29 05:27:00;;;;;;;96.60;46.33;;;;;;;8.07;67.87;94120.97;1826254;78;21130;-57
2021/04/29 05:29:29;;;;;;;81.35;47.20;;;;;;;8.14;67.79;94122.86;1826296;78;21103;-56
2021/04/29 05:31:57;;;;;;;98.33;46.05;;;;;;;8.22;67.54;94122.77;1826324;78;21056;-57
2021/04/29 05:34:25;;;;;;;102.75;49.33;;;;;;;8.27;67.26;94122.19;1826139;78;21245;-57
2021/04/29 05:36:53;;;;;;;85.70;46.95;;;;;;;8.29;67.22;94126.61;1820969;78;21139;-56
2021/04/29 05:39:21;;;;;;;73.85;43.55;;;;;;;8.32;67.13;94127.11;1816904;78;21627;-56
2021/04/29 05:41:49;;;;;;;86.37;49.40;;;;;;;8.44;67.21;94136.47;1817386;78;21103;-56
2021/04/29 05:44:18;;;;;;;92.55;45.70;;;;;;;8.52;67.14;94137.72;1816815;79;21158;-58
2021/04/29 05:46:46;;;;;;;89.97;47.27;;;;;;;8.66;67.07;94133.83;1817012;79;21198;-57
2021/04/29 05:49:15;;;;;;;100.70;49.50;;;;;;;8.87;66.88;94134.42;1816866;79;21144;-57
2021/04/29 05:51:43;;;;;;;104.07;45.85;;;;;;;9.08;66.60;94126.73;1816044;78;21147;-60
2021/04/29 05:54:11;;;;;;;100.50;48.78;;;;;;;9.25;65.67;94134.86;1814630;79;21063;-57
2021/04/29 05:56:45;;;;;;;112.88;47.27;;;;;;;9.27;65.38;94122.82;1817658;78;21500;-58
2021/04/29 05:59:14;;;;;;;86.22;45.92;;;;;;;9.28;65.06;94122.34;1822424;78;21185;-57
2021/04/29 06:01:47;;;;;;;93.62;43.70;;;;;;;9.34;64.94;94112.32;1816777;78;21167;-60
2021/04/29 06:04:17;;;;;;;75.35;41.98;;;;;;;9.39;64.56;94116.42;1811215;78;21165;-62
2021/04/29 06:06:45;;;;;;;71.22;37.80;;;;;;;9.40;64.32;94124.22;1819117;78;21190;-59
2021/04/29 06:09:15;;;;;;;78.50;36.60;;;;;;;9.45;64.14;94118.75;1819712;77;21146;-61
2021/04/29 06:11:43;;;;;;;56.92;33.63;;;;;;;9.47;63.98;94116.30;1820705;78;21947;-57
2021/04/29 06:14:12;;;;;;;71.07;40.15;;;;;;;9.51;63.85;94122.41;1824417;78;21130;-60
2021/04/29 06:16:40;;;;;;;64.70;31.15;;;;;;;9.65;63.79;94121.83;1787679;78;21133;-56
2021/04/29 06:19:08;;;;;;;67.22;28.65;;;;;;;9.71;63.46;94121.37;1821087;77;21147;-58
2021/04/29 06:21:37;;;;;;;64.53;24.55;;;;;;;9.75;63.42;94120.00;1826337;77;21177;-61
2021/04/29 06:24:06;;;;;;;57.00;23.45;;;;;;;9.84;63.55;94115.13;1820439;78;21208;-60
2021/04/29 06:26:33;;;;;;;67.87;26.85;;;;;;;10.00;62.93;94112.83;1816533;78;21169;-57
2021/04/29 06:29:02;;;;;;;50.45;24.05;;;;;;;10.06;62.71;94113.02;1813129;78;21219;-57
2021/04/29 06:31:30;;;;;;;68.22;29.20;;;;;;;10.13;62.77;94114.84;1818158;78;21182;-59
2021/04/29 06:33:57;;;;;;;53.40;25.85;;;;;;;10.19;62.54;94110.88;1824579;77;21175;-57
2021/04/29 06:36:25;;;;;;;43.75;23.90;;;;;;;10.22;62.67;94115.45;1822345;77;21558;-62
2021/04/29 06:38:53;;;;;;;51.23;26.75;;;;;;;10.29;62.49;94117.87;1819201;78;21131;-59
2021/04/29 06:41:21;;;;;;;46.83;24.87;;;;;;;10.37;62.50;94112.23;1824017;78;21205;-61
2021/04/29 06:43:49;;;;;;;42.35;24.85;;;;;;;10.49;62.31;94111.30;1816643;78;21575;-57
2021/04/29 06:46:17;;;;;;;43.87;24.37;;;;;;;10.56;62.11;94117.84;1817694;76;21183;-60
2021/04/29 06:48:45;;;;;;;46.45;28.07;;;;;;;10.63;62.06;94113.39;1822302;78;21365;-58
2021/04/29 06:51:14;;;;;;;51.55;29.92;;;;;;;10.69;62.05;94110.19;1825502;78;21166;-58
2021/04/29 06:53:43;;;;;;;45.83;22.45;;;;;;;10.86;62.38;94112.10;1814117;77;22284;-59
2021/04/29 06:56:12;;;;;;;36.93;21.20;;;;;;;11.11;61.72;94119.34;1820246;78;21168;-57
2021/04/29 06:58:40;;;;;;;41.30;19.92;;;;;;;11.26;60.95;94116.08;1820515;78;21174;-58
2021/04/29 07:01:07;;;;;;;34.83;19.48;;;;;;;11.29;60.62;94116.52;1826017;78;22073;-58
2021/04/29 07:03:37;;;;;;;31.55;18.27;;;;;;;11.31;60.60;94119.56;1825087;78;21232;-59
2021/04/29 07:06:05;;;;;;;33.23;16.73;;;;;;;11.41;60.47;94107.28;1809087;78;21107;-56
2021/04/29 07:08:33;;;;;;;34.55;16.67;;;;;;;11.53;60.00;94114.54;1823267;78;21266;-59
2021/04/29 07:11:02;;;;;;;33.30;16.27;;;;;;;11.63;59.66;94111.92;1823615;77;21228;-57
2021/04/29 07:13:31;;;;;;;42.88;16.60;;;;;;;11.73;59.62;94111.24;1816354;77;21327;-56
2021/04/29 07:16:00;;;;;;;30.57;15.78;;;;;;;11.91;59.54;94112.49;1823038;77;21214;-58
2021/04/29 07:18:28;;;;;;;27.15;15.95;;;;;;;12.12;59.09;94108.66;1822265;78;21154;-61
2021/04/29 07:20:56;;;;;;;30.12;15.63;;;;;;;12.30;58.54;94110.63;1823955;78;21205;-61
2021/04/29 07:23:24;;;;;;;32.23;16.95;;;;;;;12.49;58.12;94116.75;1823663;78;21139;-58
2021/04/29 07:25:52;;;;;;;27.20;13.85;;;;;;;12.56;57.98;94110.25;1824564;77;22131;-60
2021/04/29 07:28:21;;;;;;;35.13;13.53;;;;;;;12.70;57.60;94118.52;1823595;78;21153;-61
2021/04/29 07:30:49;;;;;;;27.65;13.32;;;;;;;12.80;57.24;94123.33;1822181;77;21511;-60
2021/04/29 07:33:17;;;;;;;45.15;14.15;;;;;;;12.86;56.79;94120.06;1820701;78;21166;-60
2021/04/29 07:35:48;;;;;;;34.50;13.88;;;;;;;12.90;56.74;94118.61;1823373;77;21209;-58
2021/04/29 07:38:15;;;;;;;23.20;10.98;;;;;;;12.95;56.60;94111.09;1820936;78;22103;-59
2021/04/29 07:40:43;;;;;;;18.82;9.90;;;;;;;13.08;56.48;94102.50;1811413;78;21156;-58
2021/04/29 07:43:12;;;;;;;25.52;12.07;;;;;;;13.19;56.28;94113.09;1826252;77;21190;-57
2021/04/29 07:45:41;;;;;;;30.08;13.58;;;;;;;13.31;56.07;94108.50;1823816;78;21172;-58
2021/04/29 07:48:09;;;;;;;35.33;18.02;;;;;;;13.46;55.89;94105.09;1821743;78;21171;-58
2021/04/29 07:50:38;;;;;;;32.38;18.48;;;;;;;13.58;55.43;94105.37;1822922;77;21189;-58
2021/04/29 07:53:08;;;;;;;26.35;15.18;;;;;;;13.65;55.41;94104.98;1817317;77;21210;-57
2021/04/29 07:55:37;;;;;;;49.75;19.40;;;;;;;13.76;55.27;94099.59;1824600;78;21141;-58
2021/04/29 07:58:05;;;;;;;34.70;18.12;;;;;;;13.87;55.38;94108.03;1821999;78;21146;-56
2021/04/29 08:00:34;;;;;;;29.02;18.62;;;;;;;14.00;55.02;94107.08;1814911;78;21534;-63
2021/04/29 08:03:04;;;;;;;35.55;17.95;;;;;;;14.12;54.83;94099.03;1817005;78;22195;-60
2021/04/29 08:05:34;;;;;;;39.65;17.27;;;;;;;14.25;54.63;94097.48;1816605;78;21197;-57
2021/04/29 08:08:03;;;;;;;29.12;14.70;;;;;;;14.40;54.45;94093.23;1822526;78;21178;-61
2021/04/29 08:10:30;;;;;;;44.58;16.93;;;;;;;14.49;54.25;94091.81;1810450;77;21232;-61
2021/04/29 08:12:58;;;;;;;34.50;16.20;;;;;;;14.54;54.10;94082.05;1799179;78;21601;-60
2021/04/29 08:15:27;;;;;;;30.17;16.50;;;;;;;14.57;54.15;94081.84;1792133;78;21272;-59
2021/04/29 08:17:54;;;;;;;51.28;18.42;;;;;;;14.66;54.00;94080.92;1795728;78;21186;-57
2021/04/29 08:20:22;;;;;;;37.28;17.23;;;;;;;14.84;54.06;94070.26;1789354;78;21169;-60
2021/04/29 08:22:50;;;;;;;40.28;16.35;;;;;;;15.04;53.58;94063.25;1791717;78;21157;-60
2021/04/29 08:25:19;;;;;;;41.68;16.67;;;;;;;15.16;53.43;94066.89;1754539;80;21211;-59
2021/04/29 08:27:48;;;;;;;31.33;15.75;;;;;;;15.28;53.13;94069.23;1728282;81;21667;-58
2021/04/29 08:30:17;;;;;;;34.50;16.02;;;;;;;15.41;52.97;94056.37;1733954;81;21603;-57
2021/04/29 08:32:48;;;;;;;44.60;17.42;;;;;;;15.60;52.83;94061.66;1737141;81;21250;-57
2021/04/29 08:35:16;;;;;;;33.73;14.87;;;;;;;15.78;52.45;94055.70;1744469;81;21220;-56
2021/04/29 08:37:45;;;;;;;29.65;14.03;;;;;;;15.91;52.12;94056.77;1733605;81;21189;-62
2021/04/29 08:40:14;;;;;;;41.30;18.02;;;;;;;16.07;51.89;94051.17;1733352;81;21626;-59
2021/04/29 08:42:43;;;;;;;33.70;19.55;;;;;;;16.26;51.71;94054.38;1741117;81;21266;-58
2021/04/29 08:45:13;;;;;;;35.98;17.10;;;;;;;16.49;51.75;94050.42;1732854;81;21193;-58
2021/04/29 08:47:41;;;;;;;28.05;15.23;;;;;;;16.76;51.60;94053.90;1732962;81;21564;-57
2021/04/29 08:50:11;;;;;;;32.08;16.55;;;;;;;17.02;50.77;94045.45;1732065;81;21202;-59
2021/04/29 08:52:39;;;;;;;42.73;16.02;;;;;;;17.17;50.39;94053.53;1733005;81;21798;-58
2021/04/29 08:55:08;;;;;;;33.75;16.02;;;;;;;17.34;51.11;94048.13;1735075;81;21233;-59
2021/04/29 08:57:36;;;;;;;25.50;14.87;;;;;;;17.59;51.39;94046.30;1744661;81;21179;-62
2021/04/29 09:00:05;;;;;;;30.40;15.38;;;;;;;17.78;50.89;94041.08;1738228;81;21182;-59
2021/04/29 09:02:35;;;;;;;24.18;14.78;;;;;;;17.85;51.00;94034.23;1741573;81;21692;-61
2021/04/29 09:05:12;;;;;;;28.52;15.80;;;;;;;17.94;51.03;94046.46;1744452;81;21426;-58
2021/04/29 09:07:53;;;;;;;30.50;15.58;;;;;;;17.94;49.88;94045.84;1747057;81;21204;-60
2021/04/29 09:10:24;;;;;;;50.43;18.35;;;;;;;17.88;49.44;94041.55;1753724;79;21685;-58
2021/04/29 09:12:52;;;;;;;33.95;14.70;;;;;;;17.85;49.32;94041.19;1763109;79;21564;-58
2021/04/29 09:15:29;;;;;;;28.95;15.75;;;;;;;17.85;49.87;94042.58;1780487;79;21124;-62
2021/04/29 09:18:15;;;;;;;35.43;16.87;;;;;;;17.82;49.56;94045.00;1784396;79;21259;-61
2021/04/29 09:21:03;;;;;;;44.03;17.77;;;;;;;17.74;49.21;94047.55;1763943;80;21170;-60
2021/04/29 09:23:34;;;;;;;30.50;15.75;;;;;;;17.65;49.49;94035.94;1763159;81;21624;-60
2021/04/29 09:26:14;;;;;;;38.90;16.55;;;;;;;17.62;49.52;94036.31;1763619;80;21731;-58
2021/04/29 09:28:53;;;;;;;44.10;16.35;;;;;;;17.58;49.59;94043.39;1763199;81;21642;-59
2021/04/29 09:31:26;;;;;;;37.93;16.62;;;;;;;17.48;49.91;94037.34;1763716;80;21627;-58
2021/04/29 09:33:59;;;;;;;39.13;17.82;;;;;;;17.48;49.96;94036.60;1768018;79;21206;-61
2021/04/29 09:36:29;;;;;;;45.88;17.92;;;;;;;17.54;50.00;94033.94;1762503;81;26976;-61
2021/04/29 09:39:09;;;;;;;41.95;17.77;;;;;;;17.63;49.72;94034.30;1754934;81;21507;-60
2021/04/29 09:41:48;;;;;;;28.77;17.35;;;;;;;17.72;49.70;94034.01;1773697;79;21225;-62
2021/04/29 09:44:20;;;;;;;43.17;17.10;;;;;;;17.88;50.47;94030.42;1771566;79;21453;-62
2021/04/29 09:46:53;;;;;;;45.23;18.75;;;;;;;18.03;49.42;94039.23;1754134;79;21126;-60
2021/04/29 09:49:31;;;;;;;27.77;15.72;;;;;;;18.09;49.53;94032.37;1772885;79;21094;-61
2021/04/29 09:52:03;;;;;;;35.75;15.63;;;;;;;18.19;49.34;94028.02;1768438;79;21174;-60
2021/04/29 09:54:36;;;;;;;25.77;15.53;;;;;;;18.22;48.88;94029.15;1758622;79;21624;-60
2021/04/29 09:57:07;;;;;;;23.53;13.53;;;;;;;18.27;48.76;94027.64;1778232;79;21244;-60
2021/04/29 09:59:42;;;;;;;34.85;15.00;;;;;;;18.40;48.94;94036.94;1763034;81;21814;-59
2021/04/29 10:02:11;;;;;;;30.72;14.83;;;;;;;18.56;49.97;94036.71;1763627;81;27288;-60
2021/04/29 10:04:40;;;;;;;21.73;12.25;;;;;;;18.67;50.27;94033.87;1757096;81;21193;-59
2021/04/29 10:07:08;;;;;;;32.08;10.45;;;;;;;18.73;48.41;94040.92;1790198;80;21203;-58
2021/04/29 10:09:38;;;;;;;24.47;10.00;;;;;;;18.78;47.02;94035.17;1765518;80;22136;-61
2021/04/29 10:12:10;;;;;;;33.88;23.60;;;;;;;18.74;46.78;94041.05;1791605;79;22281;-61
2021/04/29 10:14:49;;;;;;;12.23;9.10;;;;;;;18.72;46.21;94039.41;1765130;80;21653;-59
2021/04/29 10:17:19;;;;;;;14.75;8.28;;;;;;;18.67;45.82;94029.04;1772635;78;21187;-59
2021/04/29 10:19:56;;;;;;;15.45;7.85;;;;;;;18.62;46.08;94024.27;1754765;80;21576;-61
2021/04/29 10:22:24;;;;;;;35.08;9.23;;;;;;;18.63;47.01;94025.03;1746453;80;21174;-58
2021/04/29 10:24:52;;;;;;;46.18;10.70;;;;;;;18.61;46.55;94024.80;1759536;81;22262;-60
2021/04/29 10:27:25;;;;;;;39.50;13.13;;;;;;;18.55;46.31;94025.45;1761423;81;21203;-61
2021/04/29 10:30:08;;;;;;;32.48;12.82;;;;;;;18.47;46.92;94025.23;1762866;81;21223;-59
2021/04/29 10:32:37;;;;;;;15.72;10.55;;;;;;;18.36;47.40;94028.72;1759951;79;21167;-60
2021/04/29 10:35:20;;;;;;;31.52;15.80;;;;;;;18.26;46.83;94025.45;1751665;81;22123;-59
2021/04/29 10:38:00;;;;;;;;;;;;;;;18.21;46.96;94016.50;1753536;81;21331;-57
2021/04/29 10:40:40;;;;;;;19.25;10.08;;;;;;;18.30;46.80;94019.00;1761446;81;20339;-58
2021/04/29 10:43:09;;;;;;;17.82;8.45;;;;;;;18.41;46.45;94019.57;1759895;80;21190;-58
2021/04/29 10:45:37;;;;;;;30.68;8.85;;;;;;;18.50;46.22;94013.71;1762082;80;21642;-58
2021/04/29 10:48:09;;;;;;;17.02;8.23;;;;;;;18.56;46.21;94009.63;1759369;80;21398;-58
2021/04/29 10:50:46;;;;;;;14.25;6.97;;;;;;;18.60;45.90;94013.50;1773643;79;21229;-59
2021/04/29 10:53:27;;;;;;;15.50;9.68;;;;;;;18.66;45.58;94004.49;1779912;79;21150;-60
2021/04/29 10:56:04;;;;;;;22.98;9.13;;;;;;;18.79;45.78;94002.62;1769535;79;21270;-59
2021/04/29 10:58:32;;;;;;;24.45;11.88;;;;;;;18.90;45.39;93992.79;1769379;79;21200;-62
2021/04/29 11:01:20;;;;;;;17.27;9.08;;;;;;;19.15;45.33;93994.34;1755878;79;22099;-60
2021/04/29 11:03:50;;;;;;;14.73;8.93;;;;;;;19.51;44.49;93988.84;1775820;79;21182;-62
2021/04/29 11:06:33;;;;;;;11.68;8.70;;;;;;;19.89;43.27;93986.25;1769510;80;21117;-61
2021/04/29 11:09:04;;;;;;;22.10;8.30;;;;;;;20.49;42.05;93986.13;1780410;80;21632;-61
2021/04/29 11:11:36;;;;;;;12.55;6.87;;;;;;;21.27;42.04;93991.44;1745422;79;21202;-60
2021/04/29 11:14:16;;;;;;;22.90;6.80;;;;;;;21.66;42.25;93985.19;1776910;78;21269;-60
2021/04/29 11:16:51;;;;;;;10.70;6.72;;;;;;;21.86;40.51;93985.95;1757656;80;21265;-62
2021/04/29 11:19:48;;;;;;;10.30;6.67;;;;;;;21.90;40.89;93976.58;1772124;80;21217;-58
2021/04/29 11:22:30;;;;;;;12.25;6.03;;;;;;;21.87;41.18;93973.45;1771800;80;21135;-62
2021/04/29 11:24:58;;;;;;;10.35;5.90;;;;;;;21.92;40.64;93969.78;1774016;79;21139;-62
2021/04/29 11:27:31;;;;;;;8.00;5.67;;;;;;;21.91;39.66;93961.28;1786789;79;21574;-60
2021/04/29 11:30:13;;;;;;;14.10;6.62;;;;;;;21.86;39.37;93957.28;1750655;81;21159;-58
2021/04/29 11:32:55;;;;;;;14.00;7.58;;;;;;;21.79;39.89;93962.14;1756764;81;21651;-61
2021/04/29 11:35:29;;;;;;;11.12;7.17;;;;;;;22.14;41.17;93959.63;1745941;81;21213;-60